createdAt,value
2018-09-22T00:00:43.926Z,2.37
2018-09-22T00:03:13.205Z,2.23
2018-09-22T00:05:42.419Z,2.27
2018-09-22T00:08:11.738Z,2.30
2018-09-22T00:10:41.036Z,2.10
2018-09-22T00:13:10.292Z,2.00
2018-09-22T00:15:39.594Z,1.80
2018-09-22T00:18:09.106Z,1.87
2018-09-22T00:20:38.427Z,1.87
2018-09-22T00:23:07.739Z,1.77
2018-09-22T00:25:41.934Z,1.67
2018-09-22T00:28:11.186Z,1.83
2018-09-22T00:30:40.460Z,2.50
2018-09-22T00:33:09.772Z,2.10
2018-09-22T00:35:39.027Z,1.80
2018-09-22T00:38:08.308Z,1.70
2018-09-22T00:40:37.571Z,1.77
2018-09-22T00:43:07.427Z,1.43
2018-09-22T00:45:36.698Z,1.80
2018-09-22T00:48:05.968Z,1.67
2018-09-22T00:50:35.278Z,1.67
2018-09-22T00:53:04.565Z,2.33
2018-09-22T00:55:34.078Z,2.13
2018-09-22T00:58:03.407Z,1.50
2018-09-22T01:00:32.692Z,1.57
2018-09-22T01:03:01.990Z,1.90
2018-09-22T01:05:31.683Z,2.00
2018-09-22T01:08:00.976Z,2.17
2018-09-22T01:10:30.219Z,1.83
2018-09-22T01:12:59.483Z,2.37
2018-09-22T01:15:32.168Z,1.70
2018-09-22T01:18:03.452Z,2.00
2018-09-22T01:20:32.766Z,1.90
2018-09-22T01:23:02.083Z,1.70
2018-09-22T01:25:31.384Z,2.03
2018-09-22T01:28:00.639Z,2.00
2018-09-22T01:30:29.879Z,1.70
2018-09-22T01:32:59.167Z,1.60
2018-09-22T01:35:28.456Z,2.00
2018-09-22T01:37:57.747Z,1.83
2018-09-22T01:40:27.071Z,1.40
2018-09-22T01:42:58.690Z,1.63
2018-09-22T01:45:28.412Z,2.13
2018-09-22T01:47:57.651Z,2.00
2018-09-22T01:50:26.903Z,1.70
2018-09-22T01:52:56.179Z,2.00
2018-09-22T01:55:25.569Z,1.67
2018-09-22T01:57:54.791Z,1.80
2018-09-22T02:00:24.018Z,2.03
2018-09-22T02:02:53.315Z,1.60
2018-09-22T02:05:22.571Z,1.60
2018-09-22T02:07:51.915Z,2.03
2018-09-22T02:10:21.288Z,1.90
2018-09-22T02:12:50.607Z,1.80
2018-09-22T02:15:19.822Z,2.13
2018-09-22T02:17:49.119Z,1.90
2018-09-22T02:20:18.418Z,1.90
2018-09-22T02:22:47.671Z,2.33
2018-09-22T02:25:16.934Z,1.87
2018-09-22T02:27:46.212Z,1.60
2018-09-22T02:30:15.485Z,1.87
2018-09-22T02:32:44.778Z,1.60
2018-09-22T02:35:14.087Z,2.03
2018-09-22T02:37:43.388Z,2.03
2018-09-22T02:40:12.692Z,2.00
2018-09-22T02:42:41.944Z,2.03
2018-09-22T02:45:11.233Z,1.80
2018-09-22T02:47:40.580Z,1.93
2018-09-22T02:50:09.880Z,2.10
2018-09-22T02:52:39.192Z,2.33
2018-09-22T02:55:08.756Z,1.40
2018-09-22T02:57:38.104Z,2.10
2018-09-22T03:00:08.053Z,1.90
2018-09-22T03:02:37.384Z,1.93
2018-09-22T03:05:06.696Z,2.63
2018-09-22T03:07:35.970Z,2.07
2018-09-22T03:10:05.513Z,2.80
2018-09-22T03:12:34.844Z,1.90
2018-09-22T03:15:05.052Z,2.07
2018-09-22T03:17:34.286Z,2.00
2018-09-22T03:20:03.983Z,1.57
2018-09-22T03:22:33.377Z,1.70
2018-09-22T03:25:02.684Z,2.00
2018-09-22T03:27:31.972Z,2.27
2018-09-22T03:30:01.232Z,1.90
2018-09-22T03:32:30.506Z,1.97
2018-09-22T03:35:00.700Z,1.50
2018-09-22T03:37:29.957Z,2.27
2018-09-22T03:39:59.203Z,1.67
2018-09-22T03:42:28.531Z,1.67
2018-09-22T03:44:57.823Z,1.60
2018-09-22T03:47:27.143Z,1.90
2018-09-22T03:49:56.487Z,1.87
2018-09-22T03:52:25.719Z,1.77
2018-09-22T03:54:56.086Z,1.70
2018-09-22T03:57:25.424Z,1.50
2018-09-22T03:59:54.663Z,1.70
2018-09-22T04:02:23.969Z,2.10
2018-09-22T04:04:53.178Z,1.97
2018-09-22T04:07:22.516Z,1.63
2018-09-22T04:09:51.780Z,1.73
2018-09-22T04:12:21.003Z,2.00
2018-09-22T04:14:50.312Z,1.40
2018-09-22T04:17:19.567Z,1.47
2018-09-22T04:19:48.876Z,2.00
2018-09-22T04:22:18.558Z,1.70
2018-09-22T04:24:47.859Z,1.93
2018-09-22T04:27:17.109Z,1.90
2018-09-22T04:29:48.647Z,2.00
2018-09-22T04:32:17.925Z,1.90
2018-09-22T04:34:47.263Z,2.40
2018-09-22T04:37:16.820Z,2.40
2018-09-22T04:39:46.095Z,1.80
2018-09-22T04:42:15.364Z,2.20
2018-09-22T04:44:44.642Z,2.50
2018-09-22T04:47:13.943Z,2.27
2018-09-22T04:49:43.238Z,2.03
2018-09-22T04:52:12.519Z,2.03
2018-09-22T04:54:41.816Z,2.30
2018-09-22T04:57:11.096Z,2.50
2018-09-22T04:59:42.501Z,2.60
2018-09-22T05:02:11.763Z,2.50
2018-09-22T05:04:41.311Z,2.53
2018-09-22T05:07:10.570Z,2.47
2018-09-22T05:09:39.875Z,2.97
2018-09-22T05:12:09.267Z,2.53
2018-09-22T05:14:38.603Z,2.87
2018-09-22T05:17:08.201Z,2.73
2018-09-22T05:19:37.428Z,3.00
2018-09-22T05:22:06.819Z,3.20
2018-09-22T05:24:36.097Z,3.10
2018-09-22T05:27:05.330Z,3.00
2018-09-22T05:29:34.621Z,3.83
2018-09-22T05:32:03.946Z,3.13
2018-09-22T05:34:33.557Z,3.83
2018-09-22T05:37:02.934Z,3.63
2018-09-22T05:39:32.190Z,3.70
2018-09-22T05:42:01.511Z,4.23
2018-09-22T05:44:31.287Z,4.03
2018-09-22T05:47:00.510Z,4.13
2018-09-22T05:49:29.781Z,3.73
2018-09-22T05:51:59.088Z,3.53
2018-09-22T05:54:28.434Z,3.90
2018-09-22T05:56:57.689Z,4.17
2018-09-22T05:59:26.941Z,4.00
2018-09-22T06:01:56.273Z,3.57
2018-09-22T06:04:26.609Z,4.50
2018-09-22T06:06:55.896Z,3.67
2018-09-22T06:09:25.156Z,3.57
2018-09-22T06:11:54.479Z,3.63
2018-09-22T06:14:23.903Z,3.23
2018-09-22T06:16:53.231Z,3.30
2018-09-22T06:19:22.511Z,3.43
2018-09-22T06:21:51.823Z,3.33
2018-09-22T06:24:21.075Z,3.10
2018-09-22T06:26:50.351Z,3.47
2018-09-22T06:29:19.619Z,3.13
2018-09-22T06:31:48.897Z,2.60
2018-09-22T06:34:18.354Z,2.83
2018-09-22T06:36:48.607Z,2.60
2018-09-22T06:39:17.842Z,2.63
2018-09-22T06:41:48.353Z,2.60
2018-09-22T06:44:17.563Z,2.80
2018-09-22T06:46:46.830Z,2.43
2018-09-22T06:49:16.071Z,2.50
2018-09-22T06:51:45.323Z,2.97
2018-09-22T06:54:14.745Z,2.80
2018-09-22T06:56:43.976Z,2.77
2018-09-22T06:59:13.305Z,2.07
2018-09-22T07:01:42.633Z,2.40
2018-09-22T07:04:13.012Z,2.23
2018-09-22T07:06:42.256Z,2.90
2018-09-22T07:09:11.522Z,2.23
2018-09-22T07:11:40.827Z,2.07
2018-09-22T07:14:10.153Z,2.10
2018-09-22T07:16:41.458Z,2.30
2018-09-22T07:19:10.862Z,2.07
2018-09-22T07:21:45.666Z,2.50
2018-09-22T07:24:14.934Z,2.20
2018-09-22T07:26:44.179Z,2.20
2018-09-22T07:29:13.523Z,2.53
2018-09-22T07:31:42.833Z,2.40
2018-09-22T07:34:12.150Z,2.63
2018-09-22T07:36:41.455Z,2.53
2018-09-22T07:39:12.380Z,2.93
2018-09-22T07:41:41.775Z,2.57
2018-09-22T07:44:11.203Z,2.33
2018-09-22T07:46:40.519Z,2.77
2018-09-22T07:49:09.862Z,2.50
2018-09-22T07:51:39.155Z,3.10
2018-09-22T07:54:08.431Z,2.37
2018-09-22T07:56:37.751Z,2.57
2018-09-22T07:59:07.572Z,2.60
2018-09-22T08:01:36.973Z,2.97
2018-09-22T08:04:06.484Z,2.33
2018-09-22T08:06:35.791Z,2.50
2018-09-22T08:09:07.087Z,2.60
2018-09-22T08:11:36.437Z,2.87
2018-09-22T08:14:12.335Z,3.13
2018-09-22T08:16:41.723Z,2.97
2018-09-22T08:19:15.219Z,2.77
2018-09-22T08:21:45.440Z,2.70
2018-09-22T08:24:14.892Z,2.53
2018-09-22T08:26:44.939Z,3.13
2018-09-22T08:29:14.347Z,3.57
2018-09-22T08:31:43.682Z,2.40
2018-09-22T08:34:13.044Z,3.07
2018-09-22T08:36:43.164Z,2.90
2018-09-22T08:39:12.879Z,2.63
2018-09-22T08:41:42.863Z,2.57
2018-09-22T08:44:12.466Z,3.17
2018-09-22T08:46:42.919Z,2.90
2018-09-22T08:49:14.254Z,3.00
2018-09-22T08:51:43.794Z,2.83
2018-09-22T08:54:13.137Z,3.03
2018-09-22T08:56:42.388Z,2.40
2018-09-22T08:59:11.815Z,2.23
2018-09-22T09:01:41.194Z,2.17
2018-09-22T09:04:11.072Z,2.23
2018-09-22T09:06:40.463Z,2.10
2018-09-22T09:09:11.266Z,2.43
2018-09-22T09:11:40.651Z,3.40
2018-09-22T09:14:10.166Z,2.73
2018-09-22T09:16:39.485Z,4.10
2018-09-22T09:19:09.197Z,2.70
2018-09-22T09:21:39.731Z,2.90
2018-09-22T09:24:09.267Z,2.10
2018-09-22T09:26:38.629Z,2.20
2018-09-22T09:29:08.314Z,2.23
2018-09-22T09:31:37.695Z,2.33
2018-09-22T09:34:09.288Z,2.63
2018-09-22T09:36:38.600Z,2.77
2018-09-22T09:39:07.911Z,2.73
2018-09-22T09:41:37.291Z,2.50
2018-09-22T09:44:07.908Z,2.37
2018-09-22T09:46:38.299Z,2.40
2018-09-22T09:49:07.645Z,5.87
2018-09-22T09:51:36.958Z,2.60
2018-09-22T09:54:06.230Z,2.00
2018-09-22T09:56:35.521Z,2.30
2018-09-22T09:59:05.004Z,2.70
2018-09-22T10:01:34.782Z,2.20
2018-09-22T10:04:04.139Z,1.97
2018-09-22T10:06:34.623Z,2.43
2018-09-22T10:09:05.599Z,2.13
2018-09-22T10:11:35.224Z,2.40
2018-09-22T10:14:04.615Z,2.97
2018-09-22T10:16:33.983Z,2.33
2018-09-22T10:19:03.239Z,2.40
2018-09-22T10:21:32.695Z,2.23
2018-09-22T10:24:02.024Z,2.47
2018-09-22T10:26:31.167Z,2.30
2018-09-22T10:29:00.561Z,2.20
2018-09-22T10:31:29.839Z,2.40
2018-09-22T10:33:59.089Z,2.27
2018-09-22T10:36:28.370Z,2.20
2018-09-22T10:38:57.639Z,2.10
2018-09-22T10:41:26.999Z,2.47
2018-09-22T10:43:56.240Z,2.33
2018-09-22T10:46:25.493Z,2.47
2018-09-22T10:48:54.807Z,2.17
2018-09-22T10:51:24.047Z,1.90
2018-09-22T10:53:53.445Z,2.53
2018-09-22T10:56:22.656Z,2.10
2018-09-22T10:58:51.970Z,2.20
2018-09-22T11:01:21.263Z,2.10
2018-09-22T11:03:50.527Z,2.70
2018-09-22T11:06:19.779Z,2.33
2018-09-22T11:08:49.007Z,2.00
2018-09-22T11:11:18.254Z,2.03
2018-09-22T11:13:47.575Z,2.10
2018-09-22T11:16:16.831Z,2.60
2018-09-22T11:18:47.375Z,2.17
2018-09-22T11:21:16.704Z,2.03
2018-09-22T11:23:45.954Z,2.20
2018-09-22T11:26:15.192Z,2.33
2018-09-22T11:28:44.434Z,1.60
2018-09-22T11:31:13.655Z,1.90
2018-09-22T11:33:42.918Z,2.30
2018-09-22T11:36:12.203Z,2.10
2018-09-22T11:38:41.483Z,2.10
2018-09-22T11:41:10.786Z,2.20
2018-09-22T11:43:40.095Z,2.50
2018-09-22T11:46:09.420Z,2.10
2018-09-22T11:48:38.751Z,1.83
2018-09-22T11:51:08.020Z,1.97
2018-09-22T11:53:37.299Z,2.20
2018-09-22T11:56:06.570Z,2.07
2018-09-22T11:58:35.767Z,2.03
2018-09-22T12:01:05.054Z,1.80
2018-09-22T12:03:34.356Z,2.10
2018-09-22T12:06:03.620Z,1.80
2018-09-22T12:08:32.867Z,1.43
2018-09-22T12:11:02.153Z,2.40
2018-09-22T12:13:31.331Z,1.63
2018-09-22T12:16:00.731Z,1.77
2018-09-22T12:18:30.043Z,2.17
2018-09-22T12:20:59.303Z,2.13
2018-09-22T12:23:28.671Z,2.00
2018-09-22T12:25:58.290Z,1.40
2018-09-22T12:28:27.538Z,1.43
2018-09-22T12:30:56.789Z,1.63
2018-09-22T12:33:26.096Z,1.60
2018-09-22T12:35:55.440Z,2.00
2018-09-22T12:38:24.946Z,1.57
2018-09-22T12:40:54.246Z,2.13
2018-09-22T12:43:23.428Z,1.33
2018-09-22T12:45:52.827Z,1.63
2018-09-22T12:48:22.088Z,1.77
2018-09-22T12:50:51.417Z,1.87
2018-09-22T12:53:20.629Z,1.90
2018-09-22T12:55:49.865Z,2.00
2018-09-22T12:58:19.100Z,1.67
2018-09-22T13:00:48.347Z,1.67
2018-09-22T13:03:17.987Z,1.60
2018-09-22T13:05:47.403Z,1.67
2018-09-22T13:08:16.638Z,1.67
2018-09-22T13:10:46.485Z,1.83
2018-09-22T13:13:16.271Z,1.70
2018-09-22T13:15:45.688Z,1.77
2018-09-22T13:18:14.926Z,2.00
2018-09-22T13:20:44.259Z,2.20
2018-09-22T13:23:13.544Z,2.10
2018-09-22T13:25:42.992Z,1.70
2018-09-22T13:28:12.355Z,1.90
2018-09-22T13:30:41.612Z,1.23
2018-09-22T13:33:11.243Z,0.70
2018-09-22T13:35:40.683Z,0.57
2018-09-22T13:38:09.943Z,0.70
2018-09-22T13:40:39.212Z,0.70
2018-09-22T13:43:09.061Z,0.40
2018-09-22T13:45:38.337Z,0.40
2018-09-22T13:48:07.416Z,0.70
2018-09-22T13:50:36.863Z,0.70
2018-09-22T13:53:06.358Z,0.83
2018-09-22T13:55:48.115Z,0.90
2018-09-22T13:58:17.474Z,0.80
2018-09-22T14:00:53.643Z,0.90
2018-09-22T14:03:23.007Z,1.40
2018-09-22T14:05:52.756Z,1.23
2018-09-22T14:08:22.870Z,0.90
2018-09-22T14:10:52.202Z,0.90
2018-09-22T14:13:21.513Z,1.10
2018-09-22T14:15:50.965Z,1.10
2018-09-22T14:18:20.315Z,1.10
2018-09-22T14:20:49.707Z,1.17
2018-09-22T14:23:19.023Z,1.00
2018-09-22T14:25:48.532Z,1.00
2018-09-22T14:28:18.181Z,0.90
2018-09-22T14:30:47.463Z,0.80
2018-09-22T14:33:16.739Z,1.03
2018-09-22T14:35:46.050Z,1.30
2018-09-22T14:38:15.333Z,0.90
2018-09-22T14:40:45.170Z,0.93
2018-09-22T14:43:15.540Z,0.90
2018-09-22T14:45:45.056Z,0.80
2018-09-22T14:48:14.389Z,1.27
2018-09-22T14:50:43.891Z,1.20
2018-09-22T14:53:13.159Z,0.90
2018-09-22T14:55:42.516Z,1.07
2018-09-22T14:58:11.870Z,1.30
2018-09-22T15:00:41.271Z,1.20
2018-09-22T15:03:10.527Z,0.90
2018-09-22T15:05:39.887Z,1.37
2018-09-22T15:08:09.349Z,1.27
2018-09-22T15:10:38.779Z,1.60
2018-09-22T15:13:08.211Z,1.57
2018-09-22T15:15:37.518Z,2.07
2018-09-22T15:18:06.763Z,2.33
2018-09-22T15:20:36.112Z,1.80
2018-09-22T15:23:05.318Z,1.37
2018-09-22T15:25:34.644Z,1.33
2018-09-22T15:28:04.000Z,1.10
2018-09-22T15:30:33.369Z,0.87
2018-09-22T15:33:02.890Z,0.90
2018-09-22T15:35:32.476Z,1.00
2018-09-22T15:38:01.831Z,0.90
2018-09-22T15:40:31.234Z,0.97
2018-09-22T15:43:00.603Z,1.20
2018-09-22T15:45:29.997Z,1.10
2018-09-22T15:47:59.311Z,1.33
2018-09-22T15:50:28.579Z,1.17
2018-09-22T15:52:57.850Z,1.50
2018-09-22T15:55:27.160Z,1.00
2018-09-22T15:57:56.892Z,1.13
2018-09-22T16:00:26.230Z,1.10
2018-09-22T16:02:55.535Z,1.10
2018-09-22T16:05:25.780Z,1.27
2018-09-22T16:07:55.175Z,1.23
2018-09-22T16:10:24.636Z,0.77
2018-09-22T16:12:54.120Z,1.20
2018-09-22T16:15:23.533Z,1.07
2018-09-22T16:17:52.792Z,0.80
2018-09-22T16:20:22.618Z,1.27
2018-09-22T16:22:52.116Z,1.50
2018-09-22T16:25:21.350Z,1.73
2018-09-22T16:27:56.911Z,1.83
2018-09-22T16:30:26.743Z,1.37
2018-09-22T16:32:56.620Z,1.20
2018-09-22T16:35:26.900Z,1.27
2018-09-22T16:37:57.514Z,0.97
2018-09-22T16:40:27.571Z,0.90
2018-09-22T16:42:58.010Z,1.10
2018-09-22T16:45:28.564Z,1.57
2018-09-22T16:47:58.742Z,1.30
2018-09-22T16:50:30.505Z,1.00
2018-09-22T16:53:02.600Z,1.00
2018-09-22T16:55:31.999Z,1.10
2018-09-22T16:58:01.279Z,1.30
2018-09-22T17:00:31.895Z,0.80
2018-09-22T17:03:01.263Z,0.93
2018-09-22T17:05:32.592Z,1.00
2018-09-22T17:08:01.840Z,0.90
2018-09-22T17:10:31.223Z,0.83
2018-09-22T17:13:00.779Z,1.10
2018-09-22T17:15:30.133Z,1.00
2018-09-22T17:17:59.487Z,1.10
2018-09-22T17:20:29.831Z,1.00
2018-09-22T17:22:59.239Z,1.17
2018-09-22T17:25:29.012Z,1.30
2018-09-22T17:27:58.263Z,1.23
2018-09-22T17:30:28.090Z,1.13
2018-09-22T17:32:57.547Z,1.20
2018-09-22T17:35:27.021Z,1.37
2018-09-22T17:37:56.566Z,1.30
2018-09-22T17:40:26.011Z,1.07
2018-09-22T17:42:55.318Z,1.20
2018-09-22T17:45:24.740Z,1.57
2018-09-22T17:47:54.251Z,1.90
2018-09-22T17:50:23.531Z,1.30
2018-09-22T17:52:53.099Z,1.50
2018-09-22T17:55:22.420Z,1.60
2018-09-22T17:57:51.666Z,2.00
2018-09-22T18:00:21.120Z,2.00
2018-09-22T18:02:50.387Z,1.50
2018-09-22T18:05:19.700Z,2.10
2018-09-22T18:07:48.972Z,1.87
2018-09-22T18:10:18.272Z,2.20
2018-09-22T18:12:47.668Z,1.90
2018-09-22T18:15:17.042Z,2.20
2018-09-22T18:17:46.332Z,1.63
2018-09-22T18:20:15.807Z,1.70
2018-09-22T18:22:45.096Z,2.27
2018-09-22T18:25:14.645Z,2.13
2018-09-22T18:27:43.916Z,2.40
2018-09-22T18:30:26.362Z,2.57
2018-09-22T18:32:55.822Z,2.07
2018-09-22T18:35:25.128Z,2.73
2018-09-22T18:37:54.388Z,3.30
2018-09-22T18:40:26.251Z,3.53
2018-09-22T18:42:55.547Z,3.60
2018-09-22T18:45:24.872Z,3.80
2018-09-22T18:47:54.120Z,3.73
2018-09-22T18:50:23.467Z,3.77
2018-09-22T18:52:52.764Z,3.60
2018-09-22T18:55:22.415Z,3.63
2018-09-22T18:57:51.801Z,3.33
2018-09-22T19:00:21.103Z,3.43
2018-09-22T19:02:50.391Z,3.90
2018-09-22T19:05:19.716Z,4.20
2018-09-22T19:07:49.255Z,4.73
2018-09-22T19:10:18.705Z,4.70
2018-09-22T19:12:48.119Z,4.30
2018-09-22T19:15:47.728Z,4.40
2018-09-22T19:18:25.087Z,4.67
2018-09-22T19:20:58.647Z,4.63
2018-09-22T19:23:32.534Z,4.23
2018-09-22T19:26:08.796Z,5.03
2018-09-22T19:28:41.856Z,4.80
2018-09-22T19:31:14.805Z,5.40
2018-09-22T19:33:47.164Z,5.77
2018-09-22T19:36:28.351Z,6.00
2018-09-22T19:39:05.648Z,5.80
2018-09-22T19:41:45.020Z,5.53
2018-09-22T19:44:19.620Z,5.43
2018-09-22T19:46:52.979Z,5.80
2018-09-22T19:49:31.376Z,6.80
2018-09-22T19:52:05.124Z,6.30
2018-09-22T19:54:35.604Z,6.03
2018-09-22T19:57:04.943Z,6.40
2018-09-22T19:59:35.304Z,6.50
2018-09-22T20:02:04.642Z,6.80
2018-09-22T20:04:34.063Z,6.33
2018-09-22T20:07:03.421Z,6.53
2018-09-22T20:09:32.968Z,6.63
2018-09-22T20:12:02.276Z,7.13
2018-09-22T20:14:31.891Z,7.33
2018-09-22T20:17:01.211Z,7.53
2018-09-22T20:19:30.467Z,6.87
2018-09-22T20:21:59.800Z,7.03
2018-09-22T20:24:31.295Z,6.97
2018-09-22T20:27:00.550Z,7.30
2018-09-22T20:29:29.879Z,6.83
2018-09-22T20:31:59.161Z,7.27
2018-09-22T20:34:28.419Z,7.33
2018-09-22T20:36:57.771Z,6.97
2018-09-22T20:39:27.032Z,7.30
2018-09-22T20:41:58.317Z,7.90
2018-09-22T20:44:27.632Z,8.00
2018-09-22T20:46:56.854Z,8.10
2018-09-22T20:49:31.016Z,7.67
2018-09-22T20:52:00.556Z,7.23
2018-09-22T20:54:29.814Z,7.43
2018-09-22T20:56:59.111Z,7.90
2018-09-22T20:59:28.507Z,7.77
2018-09-22T21:01:59.823Z,7.83
2018-09-22T21:04:29.116Z,7.50
2018-09-22T21:06:58.591Z,7.23
2018-09-22T21:09:27.943Z,7.53
2018-09-22T21:11:57.342Z,7.80
2018-09-22T21:14:26.623Z,7.77
2018-09-22T21:16:55.867Z,7.93
2018-09-22T21:19:25.156Z,7.50
2018-09-22T21:21:54.448Z,7.90
2018-09-22T21:24:23.744Z,8.23
2018-09-22T21:26:52.984Z,8.27
2018-09-22T21:29:22.397Z,8.17
2018-09-22T21:31:51.675Z,7.50
2018-09-22T21:34:21.507Z,8.77
2018-09-22T21:36:50.768Z,8.57
2018-09-22T21:39:20.140Z,8.27
2018-09-22T21:41:49.579Z,8.10
2018-09-22T21:44:18.929Z,8.77
2018-09-22T21:46:48.174Z,8.87
2018-09-22T21:49:17.796Z,8.13
2018-09-22T21:51:47.215Z,8.33
2018-09-22T21:54:16.684Z,10.20
2018-09-22T21:56:45.991Z,9.67
2018-09-22T21:59:15.287Z,9.77
2018-09-22T22:01:44.597Z,9.57
2018-09-22T22:04:13.978Z,9.70
2018-09-22T22:06:43.513Z,9.90
2018-09-22T22:09:14.099Z,18.30
2018-09-22T22:11:43.539Z,12.33
2018-09-22T22:14:13.934Z,10.23
2018-09-22T22:16:43.367Z,10.67
2018-09-22T22:19:12.665Z,11.23
2018-09-22T22:21:42.279Z,11.07
2018-09-22T22:24:14.019Z,11.87
2018-09-22T22:26:43.438Z,12.73
2018-09-22T22:29:12.822Z,12.17
2018-09-22T22:31:42.424Z,12.57
2018-09-22T22:34:11.662Z,12.30
2018-09-22T22:36:43.051Z,13.07
2018-09-22T22:39:12.349Z,12.47
2018-09-22T22:41:41.699Z,13.43
2018-09-22T22:44:11.156Z,11.90
2018-09-22T22:46:40.378Z,12.07
2018-09-22T22:49:09.762Z,12.00
2018-09-22T22:51:39.155Z,12.60
2018-09-22T22:54:08.616Z,12.83
2018-09-22T22:56:37.931Z,13.10
2018-09-22T22:59:07.262Z,13.70
2018-09-22T23:01:36.665Z,12.67
2018-09-22T23:04:06.133Z,14.40
2018-09-22T23:06:35.382Z,14.60
2018-09-22T23:09:05.948Z,14.70
2018-09-22T23:11:35.248Z,13.47
2018-09-22T23:14:04.611Z,15.63
2018-09-22T23:16:34.094Z,15.17
2018-09-22T23:19:03.534Z,14.97
2018-09-22T23:21:32.827Z,13.23
2018-09-22T23:24:02.101Z,14.67
2018-09-22T23:26:31.394Z,14.73
2018-09-22T23:29:00.688Z,14.77
2018-09-22T23:31:29.980Z,14.67
2018-09-22T23:33:59.289Z,14.70
2018-09-22T23:36:28.532Z,14.93
2018-09-22T23:38:57.851Z,14.70
2018-09-22T23:41:27.182Z,14.17
2018-09-22T23:43:56.659Z,13.83
2018-09-22T23:46:26.059Z,14.23
2018-09-22T23:48:55.340Z,14.30
2018-09-22T23:51:24.639Z,14.00
2018-09-22T23:53:53.929Z,14.17
2018-09-22T23:56:23.233Z,13.60
2018-09-22T23:58:52.468Z,13.90
